Terminal Aerodrome Forecast
Issued by NWS Cleveland, OH

Home | Current Version | Previous Version | Text Only | Print | Product List | Glossary Off
Versions: 1 2 3 4 5 6 7 8 9 10 11 12 13 14 15 16 17 18 19 20 21 22

000
FTUS41 KCLE 280800 AAA
TAFTOL
TAF AMD
KTOL 280858Z 2809/2906 VRB02KT 5SM BR FEW150 BKN250
      TEMPO 2809/2813 1 1/2SM BR
     FM281400 VRB04KT P6SM BKN250=

USA.gov is the U.S. government's official web portal to all federal, state and local government web resources and services.